Sonderso, Denmark
Current Conditions -  °F | °C
As of 6:50 PM on Sunday 21 Dec 2014 (Local Time) from EKSP Reporting Station
Light Rain Light Rain  
Wind Chill: 36°   Ceiling: 600
Heat Index: 45°   Visibility: 2.5mi
Dew Point: 43°   Wind: 23mph
Humidity: 93%   Direction: 240°WSW
Pressure: 29.8"   Gusts: NA
Location:  55.49°N, 10.26°E
Report Text: EKSP 211750Z 24020KT 4000 -DZRA BKN006 BKN008 07/06 Q1009
Loading
Personal Weather Stations






























Interactive Weather Map New forecast layout! Learn more

10-Day Weather Forecast

Advertisements
Track Severe Weather on mobile